Time;durP1;ratioP1;P1;durP2;ratioP2;P2;SDS_P1;SDS_P2;PMS_P1;PMS_P2;Temp;Humidity;BMP_temperature;BMP_pressure;BME280_temperature;BME280_humidity;BME280_pressure;Samples;Min_cycle;Max_cycle;Signal;HPM_P1;HPM_P2
2022/03/17 00:01:48;;;;;;;45.37;30.50;;;;;;;7.68;87.09;100267.41;5072416;28;20253;-72
2022/03/17 00:04:15;;;;;;;42.07;30.43;;;;;;;7.71;87.82;100264.41;5071762;28;20243;-73
2022/03/17 00:06:42;;;;;;;48.50;31.83;;;;;;;7.76;87.37;100264.78;5071838;28;20652;-73
2022/03/17 00:09:10;;;;;;;44.90;31.83;;;;;;;7.35;87.77;100258.47;5071799;28;20218;-73
2022/03/17 00:11:37;;;;;;;42.37;32.53;;;;;;;7.27;89.05;100254.97;5072530;28;20246;-72
2022/03/17 00:14:04;;;;;;;47.50;33.10;;;;;;;7.35;89.89;100258.47;5076927;28;20245;-71
2022/03/17 00:16:32;;;;;;;41.57;31.33;;;;;;;7.43;89.60;100260.34;5076630;28;20255;-72
2022/03/17 00:19:07;;;;;;;45.43;32.40;;;;;;;7.40;89.41;100263.28;5075695;28;20629;-72
2022/03/17 00:21:35;;;;;;;43.93;31.90;;;;;;;7.32;89.62;100263.25;5076023;28;20188;-73
2022/03/17 00:24:02;;;;;;;43.27;31.90;;;;;;;7.39;90.37;100269.56;5075545;28;20219;-73
2022/03/17 00:26:30;;;;;;;44.43;31.10;;;;;;;7.43;90.16;100268.28;5076000;28;20660;-73
2022/03/17 00:28:57;;;;;;;42.10;31.37;;;;;;;7.39;89.09;100270.38;5095383;28;20244;-72
2022/03/17 00:31:23;;;;;;;44.97;32.10;;;;;;;7.38;89.27;100274.03;5095702;28;20260;-72
2022/03/17 00:33:50;;;;;;;43.30;29.97;;;;;;;7.38;89.19;100283.75;5095668;28;20259;-72
2022/03/17 00:36:17;;;;;;;43.10;29.67;;;;;;;7.19;89.13;100283.97;5095974;28;20191;-71
2022/03/17 00:38:44;;;;;;;43.60;31.07;;;;;;;7.24;89.88;100265.84;5095922;28;20191;-71
2022/03/17 00:41:10;;;;;;;43.33;29.70;;;;;;;7.28;89.48;100272.47;5095542;28;20197;-71
2022/03/17 00:43:38;;;;;;;37.70;28.83;;;;;;;7.17;88.94;100281.50;5095848;28;20679;-70
2022/03/17 00:46:05;;;;;;;44.27;29.47;;;;;;;7.14;89.00;100286.25;5095752;28;20193;-70
2022/03/17 00:48:32;;;;;;;36.97;28.57;;;;;;;7.03;88.36;100283.88;5095716;28;20197;-71
2022/03/17 00:50:58;;;;;;;48.73;29.73;;;;;;;6.74;90.07;100267.47;5095417;28;20198;-72
2022/03/17 00:53:25;;;;;;;37.57;27.67;;;;;;;6.77;89.69;100277.72;5096465;28;20197;-71
2022/03/17 00:55:52;;;;;;;41.27;27.70;;;;;;;6.79;89.72;100279.22;5095650;28;20189;-72
2022/03/17 00:58:19;;;;;;;38.57;28.20;;;;;;;6.75;89.77;100284.97;5096133;28;20193;-72
2022/03/17 01:00:47;;;;;;;35.80;27.80;;;;;;;6.88;89.50;100285.38;5095507;28;20244;-72
2022/03/17 01:03:13;;;;;;;40.30;27.60;;;;;;;6.96;89.24;100288.94;5095059;28;20661;-72
2022/03/17 01:05:41;;;;;;;36.27;26.50;;;;;;;7.07;89.57;100298.41;5094731;28;20223;-71
2022/03/17 01:08:09;;;;;;;39.07;26.67;;;;;;;7.04;89.07;100302.19;5094185;28;20198;-71
2022/03/17 01:10:35;;;;;;;37.90;26.73;;;;;;;7.11;88.65;100299.78;5094929;28;20189;-71
2022/03/17 01:13:03;;;;;;;33.73;26.07;;;;;;;7.10;87.63;100300.75;5093768;28;20251;-72
2022/03/17 01:15:30;;;;;;;35.03;26.47;;;;;;;7.16;87.65;100315.97;5094090;28;20190;-72
2022/03/17 01:17:58;;;;;;;34.57;25.43;;;;;;;7.24;87.50;100311.59;5093686;28;20195;-72
2022/03/17 01:20:25;;;;;;;34.07;23.37;;;;;;;7.31;87.37;100320.53;5094477;28;20187;-71
2022/03/17 01:22:52;;;;;;;40.00;25.07;;;;;;;7.36;86.71;100318.28;5093251;28;20195;-72
2022/03/17 01:25:18;;;;;;;33.47;24.87;;;;;;;7.23;86.25;100317.84;5093515;28;20718;-72
2022/03/17 01:27:45;;;;;;;34.83;24.33;;;;;;;7.24;85.80;100324.81;5094656;28;20191;-71
2022/03/17 01:30:12;;;;;;;31.97;23.63;;;;;;;7.22;86.18;100318.03;5093482;28;20656;-71
2022/03/17 01:32:40;;;;;;;31.17;22.87;;;;;;;7.23;85.58;100323.13;5093460;28;20664;-72
2022/03/17 01:35:10;;;;;;;31.10;23.77;;;;;;;7.25;85.67;100322.97;5093448;28;20259;-72
2022/03/17 01:37:37;;;;;;;36.13;24.87;;;;;;;7.17;86.40;100320.28;5093401;28;20194;-72
2022/03/17 01:40:05;;;;;;;41.13;25.37;;;;;;;7.15;86.35;100324.91;5093353;28;20192;-72
2022/03/17 01:42:32;;;;;;;32.33;23.87;;;;;;;7.11;87.21;100328.84;5093290;28;20654;-71
2022/03/17 01:44:59;;;;;;;32.57;25.20;;;;;;;6.74;88.45;100326.34;5093522;28;20298;-71
2022/03/17 01:47:28;;;;;;;35.27;24.13;;;;;;;6.78;89.12;100322.44;5093215;28;20191;-71
2022/03/17 01:49:55;;;;;;;33.43;24.97;;;;;;;6.89;88.65;100324.00;5094061;28;20191;-71
2022/03/17 01:52:24;;;;;;;33.23;24.97;;;;;;;6.80;89.13;100338.97;5093484;28;20226;-71
2022/03/17 01:54:51;;;;;;;32.53;24.13;;;;;;;6.80;88.85;100340.78;5093074;28;20205;-71
2022/03/17 01:57:18;;;;;;;34.07;24.40;;;;;;;6.85;89.32;100341.13;5093958;28;20244;-71
2022/03/17 01:59:46;;;;;;;30.00;23.33;;;;;;;6.71;89.75;100344.31;5093027;28;20711;-71
2022/03/17 02:02:13;;;;;;;32.70;24.63;;;;;;;6.75;90.15;100343.03;5094156;28;20197;-71
2022/03/17 02:04:42;;;;;;;33.87;25.43;;;;;;;6.41;91.43;100344.69;5053840;28;1116963;-71
2022/03/17 02:07:11;;;;;;;38.80;27.90;;;;;;;6.55;91.88;100345.00;5095088;28;20859;-71
2022/03/17 02:09:39;;;;;;;38.60;26.90;;;;;;;6.68;91.58;100341.97;5093840;28;20568;-72
2022/03/17 02:14:53;;;;;;;40.17;27.47;;;;;;;6.77;91.83;100346.38;5093868;28;20183;-72
2022/03/17 02:17:21;;;;;;;41.27;28.47;;;;;;;6.54;92.93;100350.41;5094218;28;20561;-71
2022/03/17 02:19:48;;;;;;;41.57;29.63;;;;;;;6.26;94.02;100352.28;5094486;28;20234;-71
2022/03/17 02:22:16;;;;;;;42.13;28.43;;;;;;;6.29;95.47;100343.22;5093952;28;20194;-71
2022/03/17 02:27:31;;;;;;;38.90;29.33;;;;;;;6.18;97.55;100343.41;5093993;28;20190;-70
2022/03/17 02:29:58;;;;;;;43.93;30.13;;;;;;;6.27;97.09;100343.38;5093481;28;20218;-71
2022/03/17 02:32:26;;;;;;;37.80;29.00;;;;;;;6.31;97.20;100351.81;5094543;28;20187;-71
2022/03/17 02:34:54;;;;;;;39.13;28.70;;;;;;;6.32;97.19;100350.84;5092587;28;20196;-71
2022/03/17 02:37:20;;;;;;;40.70;29.33;;;;;;;6.34;96.93;100348.88;5094483;28;20585;-71
2022/03/17 02:39:48;;;;;;;38.97;28.23;;;;;;;6.39;97.50;100367.72;5093593;28;20192;-72
2022/03/17 02:42:15;;;;;;;42.67;29.73;;;;;;;6.46;97.38;100364.38;5093203;28;20191;-72
2022/03/17 02:44:42;;;;;;;38.20;28.73;;;;;;;6.47;97.38;100375.75;5093109;28;20347;-72
2022/03/17 02:47:10;;;;;;;40.73;29.07;;;;;;;6.39;97.42;100384.41;5093676;28;20646;-71
2022/03/17 02:49:37;;;;;;;38.27;28.57;;;;;;;6.41;98.10;100387.72;5094281;28;20199;-71
2022/03/17 02:52:06;;;;;;;42.53;28.67;;;;;;;6.48;97.70;100394.06;5093018;28;20191;-72
2022/03/17 02:54:32;;;;;;;37.67;27.53;;;;;;;6.48;97.71;100399.34;5093253;28;20201;-71
2022/03/17 02:57:00;;;;;;;38.47;28.17;;;;;;;6.53;97.85;100406.84;5094112;28;20191;-71
2022/03/17 02:59:27;;;;;;;38.27;27.23;;;;;;;6.58;97.62;100404.56;5093243;28;20187;-72
2022/03/17 03:01:54;;;;;;;39.73;30.33;;;;;;;6.65;97.42;100413.56;5093210;28;20259;-72
2022/03/17 03:04:20;;;;;;;38.70;28.33;;;;;;;6.72;97.44;100418.09;5092933;28;20235;-71
2022/03/17 03:06:47;;;;;;;38.93;28.33;;;;;;;6.68;97.25;100415.88;5092828;28;20247;-71
2022/03/17 03:09:14;;;;;;;40.83;28.73;;;;;;;6.74;97.58;100404.75;5092753;28;20669;-71
2022/03/17 03:11:41;;;;;;;45.40;29.03;;;;;;;6.74;96.53;100391.53;5092717;28;20204;-71
2022/03/17 03:14:09;;;;;;;41.37;27.87;;;;;;;6.87;96.15;100415.78;5093024;28;20201;-71
2022/03/17 03:16:36;;;;;;;37.97;28.17;;;;;;;6.94;96.43;100417.66;5093122;28;20191;-71
2022/03/17 03:19:04;;;;;;;40.23;28.07;;;;;;;6.81;96.42;100424.31;5093450;28;20198;-71
2022/03/17 03:21:30;;;;;;;41.47;27.27;;;;;;;6.80;96.22;100425.25;5092837;28;20191;-71
2022/03/17 03:23:57;;;;;;;36.83;27.73;;;;;;;6.77;97.02;100431.66;5092463;28;20198;-71
2022/03/17 03:26:26;;;;;;;38.20;28.87;;;;;;;6.87;97.52;100421.88;5093770;28;20623;-71
2022/03/17 03:28:53;;;;;;;39.97;27.50;;;;;;;6.96;96.83;100420.97;5092742;28;20277;-71
2022/03/17 03:31:21;;;;;;;37.80;26.67;;;;;;;7.03;96.39;100426.50;5092420;28;20259;-71
2022/03/17 03:33:48;;;;;;;35.37;26.47;;;;;;;7.09;96.28;100436.44;5092376;28;20195;-71
2022/03/17 03:38:58;;;;;;;35.50;26.80;;;;;;;7.17;95.92;100437.38;5092750;28;20183;-71
2022/03/17 03:41:25;;;;;;;34.17;25.70;;;;;;;7.12;95.45;100441.44;5092553;28;20260;-71
2022/03/17 03:43:52;;;;;;;33.83;26.27;;;;;;;7.13;96.08;100438.66;5092486;28;20194;-71
2022/03/17 03:46:18;;;;;;;37.97;25.63;;;;;;;7.15;96.20;100435.84;5092565;28;20191;-72
2022/03/17 03:48:46;;;;;;;34.23;25.70;;;;;;;7.10;95.56;100438.94;5092174;28;20190;-71
2022/03/17 03:51:13;;;;;;;31.23;23.90;;;;;;;7.13;95.11;100448.38;5092477;28;20192;-71
2022/03/17 03:56:25;;;;;;;28.63;22.53;;;;;;;7.13;93.68;100454.50;5092780;28;20554;-72
2022/03/17 03:58:51;;;;;;;29.07;22.03;;;;;;;7.20;94.07;100457.38;5092093;28;20187;-71
2022/03/17 04:01:19;;;;;;;26.13;21.20;;;;;;;7.31;94.29;100451.88;5092623;28;20195;-72
2022/03/17 04:03:47;;;;;;;23.90;19.90;;;;;;;7.39;93.17;100454.56;5092036;28;20195;-71
2022/03/17 04:06:15;;;;;;;26.23;20.57;;;;;;;7.40;91.77;100466.78;5092525;28;20283;-71
2022/03/17 04:08:42;;;;;;;26.40;20.70;;;;;;;7.24;91.88;100477.22;5091923;28;20192;-71
2022/03/17 04:11:09;;;;;;;24.50;20.60;;;;;;;7.29;91.60;100472.31;5091883;28;20731;-70
2022/03/17 04:13:36;;;;;;;21.47;18.07;;;;;;;7.41;91.75;100471.09;5092462;28;20195;-71
2022/03/17 04:16:02;;;;;;;21.87;19.27;;;;;;;7.52;91.13;100476.16;5091868;28;20199;-71
2022/03/17 04:18:29;;;;;;;23.90;19.53;;;;;;;7.58;90.34;100472.88;5091944;28;20195;-71
2022/03/17 04:20:57;;;;;;;22.33;17.60;;;;;;;7.65;89.71;100473.94;5091814;28;20202;-72
2022/03/17 04:23:24;;;;;;;18.40;16.50;;;;;;;7.70;88.42;100484.88;5092956;28;20188;-71
2022/03/17 04:25:50;;;;;;;16.37;14.30;;;;;;;7.74;89.21;100488.88;5092038;28;20223;-71
2022/03/17 04:28:17;;;;;;;16.43;14.70;;;;;;;7.79;88.72;100494.53;5091793;28;20201;-71
2022/03/17 04:30:45;;;;;;;21.23;16.37;;;;;;;7.84;88.05;100492.28;5091703;28;20563;-71
2022/03/17 04:33:11;;;;;;;17.20;14.53;;;;;;;7.87;87.76;100499.88;5092313;28;20191;-71
2022/03/17 04:35:38;;;;;;;17.10;13.80;;;;;;;7.91;87.24;100509.19;5092860;28;20612;-71
2022/03/17 04:38:06;;;;;;;17.00;15.23;;;;;;;7.99;87.26;100511.88;5091713;28;20195;-70
2022/03/17 04:40:33;;;;;;;17.07;14.57;;;;;;;8.03;86.18;100523.81;5091946;28;20190;-70
2022/03/17 04:43:00;;;;;;;17.10;14.97;;;;;;;8.07;85.92;100526.00;5091597;28;20256;-71
2022/03/17 04:45:26;;;;;;;14.60;13.10;;;;;;;8.07;85.18;100530.47;5092126;28;20636;-71
2022/03/17 04:47:53;;;;;;;13.33;12.10;;;;;;;7.98;84.74;100536.69;5092183;28;20221;-70
2022/03/17 04:50:20;;;;;;;13.87;12.20;;;;;;;7.98;84.25;100531.41;5092411;28;20605;-71
2022/03/17 04:55:32;;;;;;;13.13;11.73;;;;;;;8.04;83.96;100530.78;5091567;28;20601;-70
2022/03/17 04:57:59;;;;;;;12.30;11.10;;;;;;;8.03;83.56;100539.69;5092853;28;20191;-70
2022/03/17 05:00:26;;;;;;;10.60;9.77;;;;;;;7.88;83.30;100534.13;5095261;28;20278;-70
2022/03/17 05:02:52;;;;;;;9.90;9.20;;;;;;;7.90;83.20;100544.56;5095617;28;20198;-70
2022/03/17 05:05:19;;;;;;;10.17;9.27;;;;;;;7.91;83.96;100546.22;5095273;28;20645;-70
2022/03/17 05:07:46;;;;;;;10.47;9.30;;;;;;;7.94;83.29;100552.03;5095369;28;20256;-71
2022/03/17 05:10:12;;;;;;;10.97;9.93;;;;;;;7.92;82.76;100550.53;5095050;28;20662;-70
2022/03/17 05:12:40;;;;;;;9.83;8.97;;;;;;;7.93;82.39;100562.78;5095322;28;20590;-68
2022/03/17 05:15:08;;;;;;;10.13;9.23;;;;;;;7.82;82.19;100553.28;5095303;28;20252;-69
2022/03/17 05:17:38;;;;;;;10.20;9.27;;;;;;;7.83;82.71;100564.66;5095280;28;20195;-68
2022/03/17 05:20:08;;;;;;;10.17;9.37;;;;;;;7.87;82.31;100560.72;5095271;28;20273;-69
2022/03/17 05:22:36;;;;;;;9.10;8.40;;;;;;;7.87;82.37;100566.00;5095959;28;20251;-68
2022/03/17 05:25:04;;;;;;;9.83;9.13;;;;;;;7.83;82.00;100564.66;5094668;28;20276;-68
2022/03/17 05:27:31;;;;;;;8.40;7.83;;;;;;;7.65;83.15;100569.13;5094775;28;20195;-68
2022/03/17 05:29:59;;;;;;;8.23;7.63;;;;;;;7.76;83.18;100569.72;5095623;28;20263;-67
2022/03/17 05:32:26;;;;;;;9.53;8.73;;;;;;;7.84;82.57;100579.56;5094986;28;20259;-68
2022/03/17 05:34:52;;;;;;;9.20;8.60;;;;;;;7.80;83.15;100572.91;5094676;28;20215;-67
2022/03/17 05:37:19;;;;;;;9.10;8.47;;;;;;;7.76;82.89;100580.31;5094902;28;20711;-69
2022/03/17 05:39:46;;;;;;;9.20;8.33;;;;;;;7.68;83.33;100567.00;5095254;28;20189;-68
2022/03/17 05:42:12;;;;;;;9.83;8.97;;;;;;;7.75;82.82;100575.16;5094840;28;20201;-69
2022/03/17 05:44:39;;;;;;;9.60;9.00;;;;;;;7.79;82.92;100585.28;5094279;28;20285;-69
2022/03/17 05:47:07;;;;;;;9.57;8.83;;;;;;;7.83;82.59;100591.09;5093471;28;20248;-70
2022/03/17 05:49:34;;;;;;;13.13;10.40;;;;;;;7.85;82.08;100600.59;5094113;28;20195;-69
2022/03/17 05:52:01;;;;;;;12.00;9.43;;;;;;;7.87;82.09;100603.03;5094103;28;20194;-69
2022/03/17 05:54:28;;;;;;;17.53;13.67;;;;;;;7.93;81.81;100602.47;5094371;28;20194;-69
2022/03/17 05:56:54;;;;;;;26.23;18.93;;;;;;;8.00;81.40;100608.81;5094327;28;20194;-69
2022/03/17 05:59:21;;;;;;;40.37;27.43;;;;;;;7.75;82.69;100607.75;5094228;28;20256;-69
2022/03/17 06:01:48;;;;;;;50.97;32.97;;;;;;;7.83;82.40;100613.09;5093653;28;20192;-68
2022/03/17 06:04:16;;;;;;;26.00;22.67;;;;;;;7.85;81.99;100616.44;5094134;28;20655;-68
2022/03/17 06:06:43;;;;;;;16.10;14.37;;;;;;;7.90;82.37;100624.75;5093515;28;20207;-68
2022/03/17 06:09:09;;;;;;;45.40;34.80;;;;;;;7.96;81.60;100634.72;5092625;28;20195;-68
2022/03/17 06:11:36;;;;;;;25.83;22.93;;;;;;;7.97;81.49;100632.91;5093853;28;20197;-68
2022/03/17 06:14:03;;;;;;;20.80;18.57;;;;;;;7.92;81.65;100638.66;5094006;28;20634;-69
2022/03/17 06:16:29;;;;;;;19.93;17.93;;;;;;;8.00;82.00;100645.84;5093636;28;20194;-69
2022/03/17 06:18:56;;;;;;;12.47;11.37;;;;;;;7.94;81.35;100651.72;5093916;28;20187;-68
2022/03/17 06:21:24;;;;;;;12.07;10.97;;;;;;;7.99;82.06;100654.75;5093492;28;20635;-68
2022/03/17 06:23:51;;;;;;;24.73;18.03;;;;;;;8.05;81.74;100659.44;5093914;28;20207;-68
2022/03/17 06:26:18;;;;;;;15.40;13.57;;;;;;;8.07;81.30;100660.97;5093328;28;20230;-68
2022/03/17 06:28:44;;;;;;;16.77;13.03;;;;;;;8.11;80.66;100664.13;5093678;28;20202;-67
2022/03/17 06:31:12;;;;;;;14.47;12.97;;;;;;;8.12;80.98;100674.56;5093321;28;20195;-68
2022/03/17 06:33:39;;;;;;;16.40;14.43;;;;;;;8.19;81.22;100677.44;5081785;28;20514;-68
2022/03/17 06:36:06;;;;;;;15.33;13.90;;;;;;;8.07;80.65;100690.06;5073162;28;20633;-69
2022/03/17 06:38:35;;;;;;;16.27;14.40;;;;;;;8.08;80.67;100696.19;5072771;28;20218;-69
2022/03/17 06:41:01;;;;;;;16.00;14.37;;;;;;;8.06;81.09;100696.34;5082478;28;20194;-69
2022/03/17 06:43:28;;;;;;;18.37;16.60;;;;;;;8.12;81.50;100708.13;5093016;28;20191;-69
2022/03/17 06:45:55;;;;;;;29.70;25.77;;;;;;;8.10;81.11;100710.09;5093285;28;20215;-69
2022/03/17 06:48:21;;;;;;;23.93;20.13;;;;;;;8.14;81.39;100712.31;5093005;28;20199;-68
2022/03/17 06:50:48;;;;;;;19.13;16.73;;;;;;;8.11;81.08;100707.31;5072833;28;20728;-68
2022/03/17 06:53:15;;;;;;;20.20;18.03;;;;;;;7.98;81.57;100701.56;5087563;28;20722;-68
2022/03/17 06:55:43;;;;;;;21.00;16.53;;;;;;;8.05;80.70;100722.94;5113569;28;20194;-68
2022/03/17 06:58:10;;;;;;;25.10;18.73;;;;;;;8.05;81.26;100725.59;5113493;28;20187;-69
2022/03/17 07:00:37;;;;;;;24.37;18.80;;;;;;;8.05;80.43;100725.59;5113647;28;20622;-68
2022/03/17 07:03:03;;;;;;;25.83;18.13;;;;;;;7.86;80.46;100734.50;5112968;27;20259;-68
2022/03/17 07:05:30;;;;;;;26.63;19.93;;;;;;;7.79;80.33;100737.84;5113768;28;20262;-69
2022/03/17 07:07:57;;;;;;;26.10;19.47;;;;;;;7.69;80.03;100726.50;5083731;28;20620;-75
2022/03/17 07:10:24;;;;;;;29.77;20.67;;;;;;;7.85;80.35;100726.69;5071330;28;20195;-70
2022/03/17 07:12:52;;;;;;;30.53;21.50;;;;;;;7.92;81.11;100712.72;5072405;28;20677;-69
2022/03/17 07:15:19;;;;;;;31.80;21.80;;;;;;;8.14;79.53;100737.94;5072239;28;20663;-69
2022/03/17 07:17:46;;;;;;;35.10;25.63;;;;;;;8.23;77.92;100747.63;5072285;28;20192;-68
2022/03/17 07:20:15;;;;;;;36.23;24.97;;;;;;;8.36;78.08;100748.09;5072086;28;20191;-68
2022/03/17 07:22:42;;;;;;;39.60;28.93;;;;;;;8.07;76.77;100760.66;5072525;28;20627;-69
2022/03/17 07:25:10;;;;;;;41.33;28.27;;;;;;;7.90;76.76;100750.88;5071950;28;20191;-70
2022/03/17 07:27:40;;;;;;;31.73;23.53;;;;;;;7.71;77.14;100761.56;5072268;28;20229;-70
2022/03/17 07:30:10;;;;;;;35.43;26.13;;;;;;;7.76;78.07;100746.91;5072582;28;20199;-69
2022/03/17 07:32:38;;;;;;;31.37;23.07;;;;;;;7.91;77.13;100763.97;5072707;28;20242;-69
2022/03/17 07:35:06;;;;;;;32.03;22.40;;;;;;;7.93;77.45;100767.28;5072319;28;20257;-70
2022/03/17 07:37:32;;;;;;;30.00;22.33;;;;;;;7.71;78.44;100774.78;5072198;28;20253;-70
2022/03/17 07:39:59;;;;;;;29.53;21.00;;;;;;;7.91;77.56;100774.56;5074909;28;20700;-70
2022/03/17 07:42:26;;;;;;;34.23;22.90;;;;;;;7.86;77.66;100762.75;5080497;28;20650;-71
2022/03/17 07:44:53;;;;;;;31.33;23.27;;;;;;;7.91;77.58;100776.34;5071840;28;20210;-70
2022/03/17 07:47:21;;;;;;;36.90;23.67;;;;;;;8.01;77.59;100782.44;5072704;28;20246;-68
2022/03/17 07:49:50;;;;;;;29.77;20.70;;;;;;;8.19;77.45;100796.53;5072015;28;20659;-70
2022/03/17 07:52:17;;;;;;;28.40;22.00;;;;;;;7.97;79.13;100783.72;5071930;28;20284;-68
2022/03/17 07:54:45;;;;;;;31.70;20.77;;;;;;;8.14;78.65;100793.50;5072232;28;20200;-69
2022/03/17 07:57:13;;;;;;;28.10;20.53;;;;;;;8.23;79.15;100792.63;5072005;28;20195;-70
2022/03/17 07:59:41;;;;;;;28.60;21.23;;;;;;;8.28;79.21;100791.22;5072001;28;20206;-70
2022/03/17 08:02:08;;;;;;;33.13;22.43;;;;;;;8.41;80.32;100799.59;5072609;28;20204;-71
2022/03/17 08:04:37;;;;;;;30.47;21.47;;;;;;;8.53;77.45;100787.00;5071969;28;20745;-69
2022/03/17 08:07:04;;;;;;;31.43;21.43;;;;;;;8.39;77.71;100803.38;5071925;28;20223;-68
2022/03/17 08:09:31;;;;;;;27.53;20.73;;;;;;;8.42;78.83;100792.50;5071459;28;20195;-72
2022/03/17 08:11:59;;;;;;;24.17;19.27;;;;;;;8.44;78.96;100803.75;5072083;28;20249;-69
2022/03/17 08:14:26;;;;;;;23.13;17.77;;;;;;;8.54;77.95;100805.34;5071790;28;20571;-69
2022/03/17 08:16:52;;;;;;;24.47;19.83;;;;;;;8.59;77.55;100802.28;5084973;28;20671;-69
2022/03/17 08:19:19;;;;;;;26.70;20.00;;;;;;;8.71;77.59;100803.72;5091875;28;20191;-68
2022/03/17 08:21:47;;;;;;;35.60;24.37;;;;;;;8.37;77.63;100813.31;5091854;28;20198;-68
2022/03/17 08:24:14;;;;;;;31.00;23.53;;;;;;;8.48;75.65;100815.72;5091489;28;20221;-70
2022/03/17 08:26:41;;;;;;;30.80;22.57;;;;;;;8.42;74.38;100813.69;5091835;28;20249;-72
2022/03/17 08:29:08;;;;;;;32.57;23.00;;;;;;;8.30;73.72;100822.81;5090550;28;20260;-72
2022/03/17 08:31:34;;;;;;;34.93;23.40;;;;;;;8.31;73.47;100820.03;5090495;28;20206;-72
2022/03/17 08:34:01;;;;;;;33.33;24.70;;;;;;;8.45;72.79;100824.00;5094037;28;20635;-71
2022/03/17 08:36:28;;;;;;;36.43;25.50;;;;;;;8.39;73.63;100829.88;5095642;28;20237;-72
2022/03/17 08:38:56;;;;;;;35.90;25.80;;;;;;;8.45;72.89;100826.63;5092324;28;20206;-72
2022/03/17 08:41:24;;;;;;;37.77;26.10;;;;;;;8.53;72.38;100829.38;5080838;28;20226;-70
2022/03/17 08:43:52;;;;;;;34.30;24.73;;;;;;;8.63;71.67;100835.41;5073743;28;20586;-70
2022/03/17 08:49:22;;;;;;;41.23;27.60;;;;;;;8.55;72.83;100835.34;5073202;28;20182;-71
2022/03/17 08:51:51;;;;;;;38.07;25.13;;;;;;;8.68;73.08;100827.84;5073720;28;20182;-69
2022/03/17 08:54:22;;;;;;;36.40;26.23;;;;;;;8.83;71.51;100842.22;5073621;28;20257;-69
2022/03/17 08:56:49;;;;;;;39.33;26.10;;;;;;;8.65;71.87;100844.03;5073598;28;20194;-70
2022/03/17 08:59:15;;;;;;;37.20;26.30;;;;;;;8.55;74.14;100837.97;5090359;28;20209;-69
2022/03/17 09:01:42;;;;;;;35.17;25.67;;;;;;;8.82;70.02;100859.13;5095113;28;20206;-69
2022/03/17 09:04:11;;;;;;;37.77;26.37;;;;;;;8.82;70.57;100848.53;5094021;28;20288;-70
2022/03/17 09:06:38;;;;;;;36.77;24.77;;;;;;;8.87;70.77;100843.59;5095048;28;20211;-70
2022/03/17 09:09:05;;;;;;;36.23;26.63;;;;;;;9.00;70.41;100852.81;5087336;28;20200;-70
2022/03/17 09:11:34;;;;;;;32.93;24.87;;;;;;;9.07;70.08;100850.41;5074769;28;20203;-70
2022/03/17 09:14:01;;;;;;;35.43;26.93;;;;;;;8.91;68.26;100855.56;5080525;28;20279;-71
2022/03/17 09:16:28;;;;;;;35.47;26.03;;;;;;;8.97;67.91;100849.63;5084054;28;20199;-71
2022/03/17 09:18:56;;;;;;;36.20;25.83;;;;;;;9.11;69.32;100859.72;5073563;28;20188;-70
2022/03/17 09:21:25;;;;;;;38.17;26.60;;;;;;;9.03;68.49;100857.00;5073656;28;20682;-69
2022/03/17 09:23:52;;;;;;;39.77;26.63;;;;;;;8.95;69.48;100856.91;5074184;28;20660;-71
2022/03/17 09:26:19;;;;;;;35.97;24.67;;;;;;;9.02;68.30;100869.41;5074466;28;20261;-70
2022/03/17 09:28:47;;;;;;;39.50;27.27;;;;;;;8.53;71.56;100861.97;5074191;28;20656;-70
2022/03/17 09:31:14;;;;;;;40.23;25.13;;;;;;;8.68;71.94;100859.63;5073939;28;20200;-69
2022/03/17 09:33:42;;;;;;;40.07;26.03;;;;;;;8.81;69.94;100865.38;5074775;28;20204;-71
2022/03/17 09:36:09;;;;;;;39.27;26.57;;;;;;;8.78;70.53;100871.81;5074184;28;20250;-71
2022/03/17 09:38:36;;;;;;;38.83;25.60;;;;;;;8.86;69.74;100871.09;5074028;28;20206;-70
2022/03/17 09:41:23;;;;;;;36.13;25.60;;;;;;;8.94;69.53;100871.16;5085746;28;20248;-70
2022/03/17 09:43:51;;;;;;;43.87;26.40;;;;;;;8.85;70.07;100877.34;5074458;28;20199;-72
2022/03/17 09:46:21;;;;;;;36.20;24.07;;;;;;;8.84;68.71;100867.72;5074135;28;20249;-72
2022/03/17 09:48:51;;;;;;;42.90;27.57;;;;;;;8.97;69.06;100876.97;5075076;28;20250;-71
2022/03/17 09:51:23;;;;;;;37.80;26.17;;;;;;;9.01;68.30;100882.78;5074378;28;20191;-72
2022/03/17 09:53:53;;;;;;;42.47;24.70;;;;;;;9.00;67.49;100886.44;5090433;28;20213;-71
2022/03/17 09:56:23;;;;;;;121.53;49.47;;;;;;;8.96;69.67;100882.41;5093984;28;20669;-70
2022/03/17 09:58:51;;;;;;;41.80;27.23;;;;;;;8.97;70.28;100881.44;5095738;28;20203;-70
2022/03/17 10:01:20;;;;;;;37.47;25.43;;;;;;;9.03;68.63;100886.94;5093783;28;20195;-71
2022/03/17 10:03:47;;;;;;;41.30;26.97;;;;;;;8.98;68.48;100888.38;5093877;28;20259;-71
2022/03/17 10:06:16;;;;;;;39.93;24.17;;;;;;;9.01;67.96;100888.09;5094244;28;20677;-69
2022/03/17 10:08:45;;;;;;;32.73;22.60;;;;;;;9.15;67.49;100896.34;5089696;28;20192;-69
2022/03/17 10:11:16;;;;;;;34.80;24.70;;;;;;;9.06;67.96;100883.16;5079342;28;20229;-69
2022/03/17 10:13:47;;;;;;;37.77;24.87;;;;;;;9.15;67.81;100895.53;5094270;28;20310;-69
2022/03/17 10:16:18;;;;;;;44.73;25.77;;;;;;;8.79;68.95;100899.16;5084641;28;20671;-70
2022/03/17 10:18:46;;;;;;;35.97;24.40;;;;;;;8.96;67.88;100900.97;5073530;28;20653;-69
2022/03/17 10:21:16;;;;;;;36.23;24.47;;;;;;;9.09;66.89;100902.25;5087990;28;20289;-70
2022/03/17 10:23:48;;;;;;;41.20;25.73;;;;;;;9.05;67.47;100894.75;5112947;28;20580;-69
2022/03/17 10:26:35;;;;;;;39.00;24.67;;;;;;;9.11;67.75;100894.16;5112558;28;20650;-70
2022/03/17 10:29:06;;;;;;;44.53;25.17;;;;;;;9.07;69.46;100884.84;5103556;28;20191;-70
2022/03/17 10:31:50;;;;;;;34.57;23.23;;;;;;;9.05;68.13;100886.81;5093593;28;20191;-69
2022/03/17 10:34:16;;;;;;;45.20;23.93;;;;;;;9.21;67.87;100889.59;5093509;28;20217;-71
2022/03/17 10:36:45;;;;;;;38.70;24.83;;;;;;;9.35;67.45;100894.38;5093619;28;20195;-71
2022/03/17 10:39:12;;;;;;;42.63;26.20;;;;;;;9.47;66.55;100887.81;5093231;28;20278;-70
2022/03/17 10:41:41;;;;;;;34.20;23.27;;;;;;;9.54;65.62;100897.66;5076854;28;20196;-70
2022/03/17 10:44:13;;;;;;;34.07;23.77;;;;;;;9.57;65.98;100913.28;5091440;28;20277;-70
2022/03/17 10:46:55;;;;;;;33.73;22.93;;;;;;;9.31;66.14;100912.38;5092419;28;20346;-70
2022/03/17 10:49:22;;;;;;;33.53;22.77;;;;;;;9.12;65.17;100906.44;5087612;28;20176;-69
2022/03/17 10:51:54;;;;;;;34.47;23.17;;;;;;;9.33;66.10;100909.59;5107884;28;20199;-70
2022/03/17 10:54:21;;;;;;;34.97;23.00;;;;;;;9.42;65.92;100906.00;5113325;28;20179;-69
2022/03/17 10:56:59;;;;;;;31.67;21.13;;;;;;;9.47;65.90;100911.66;5112924;28;20322;-70
2022/03/17 10:59:38;;;;;;;31.03;20.80;;;;;;;9.49;63.63;100907.06;5114296;27;20209;-69
2022/03/17 11:02:10;;;;;;;35.27;21.20;;;;;;;9.21;64.71;100901.03;5113414;28;20178;-69
2022/03/17 11:04:38;;;;;;;29.20;20.90;;;;;;;9.37;63.85;100903.00;5113588;28;20226;-69
2022/03/17 11:07:07;;;;;;;37.37;23.07;;;;;;;9.37;63.95;100900.34;5112830;28;20218;-69
2022/03/17 11:09:36;;;;;;;29.27;21.63;;;;;;;9.51;64.23;100902.41;5090107;28;20202;-69
2022/03/17 11:12:04;;;;;;;37.83;22.40;;;;;;;9.60;64.42;100912.13;5071003;28;20196;-69
2022/03/17 11:14:31;;;;;;;29.00;21.90;;;;;;;9.30;64.68;100909.88;5082494;28;20202;-68
2022/03/17 11:17:03;;;;;;;31.47;20.67;;;;;;;9.53;64.73;100900.47;5077522;28;20196;-68
2022/03/17 11:19:32;;;;;;;37.43;20.67;;;;;;;9.70;63.18;100903.06;5072635;28;20204;-69
2022/03/17 11:22:09;;;;;;;28.17;20.60;;;;;;;9.81;62.41;100889.53;5071955;28;20258;-69
2022/03/17 11:24:36;;;;;;;32.27;19.63;;;;;;;9.94;63.94;100881.16;5072195;28;20699;-68
2022/03/17 11:27:13;;;;;;;32.80;22.70;;;;;;;10.18;63.63;100889.28;5072404;28;20281;-68
2022/03/17 11:29:41;;;;;;;29.60;21.43;;;;;;;10.21;64.20;100886.31;5071771;28;20245;-68
2022/03/17 11:32:10;;;;;;;29.17;21.10;;;;;;;10.30;63.11;100890.66;5071517;28;20194;-68
2022/03/17 11:34:46;;;;;;;27.77;19.27;;;;;;;10.41;63.36;100882.38;5072211;28;20319;-67
2022/03/17 11:37:27;;;;;;;31.50;20.57;;;;;;;10.54;61.47;100890.72;5071831;28;20656;-68